createdAt,value
2023-01-10T00:01:42.151Z,35.53
2023-01-10T00:04:10.144Z,37.80
2023-01-10T00:06:37.621Z,35.70
2023-01-10T00:09:05.224Z,36.10
2023-01-10T00:11:51.313Z,36.67
2023-01-10T00:14:22.023Z,36.00
2023-01-10T00:16:49.564Z,36.03
2023-01-10T00:19:17.071Z,35.33
2023-01-10T00:21:46.115Z,36.37
2023-01-10T00:24:17.932Z,34.90
2023-01-10T00:26:51.109Z,35.40
2023-01-10T00:29:35.380Z,33.83
2023-01-10T00:32:02.917Z,34.87
2023-01-10T00:34:34.931Z,35.63
2023-01-10T00:37:02.431Z,33.93
2023-01-10T00:39:30.630Z,33.60
2023-01-10T00:42:16.830Z,35.07
2023-01-10T00:44:46.834Z,33.17
2023-01-10T00:47:14.849Z,34.10
2023-01-10T00:49:42.401Z,33.77
2023-01-10T00:52:09.946Z,35.07
2023-01-10T00:54:37.402Z,35.67
2023-01-10T00:57:05.051Z,35.13
2023-01-10T00:59:32.586Z,36.50
2023-01-10T01:02:00.210Z,36.70
2023-01-10T01:04:27.957Z,37.17
2023-01-10T01:06:55.418Z,36.47
2023-01-10T01:09:22.899Z,37.50
2023-01-10T01:11:50.352Z,36.20
2023-01-10T01:14:17.806Z,40.10
2023-01-10T01:16:46.313Z,39.37
2023-01-10T01:19:13.816Z,40.17
2023-01-10T01:21:41.809Z,40.77
2023-01-10T01:24:11.586Z,40.57
2023-01-10T01:26:39.924Z,38.77
2023-01-10T01:29:07.331Z,38.33
2023-01-10T01:31:34.985Z,37.07
2023-01-10T01:34:02.523Z,36.60
2023-01-10T01:36:30.251Z,36.70
2023-01-10T01:38:57.731Z,34.93
2023-01-10T01:41:43.719Z,35.23
2023-01-10T01:44:20.364Z,34.80
2023-01-10T01:47:16.026Z,36.63
2023-01-10T01:49:46.729Z,32.90
2023-01-10T01:52:28.135Z,35.17
2023-01-10T01:55:00.036Z,33.60
2023-01-10T01:57:28.775Z,36.63
2023-01-10T01:59:57.161Z,33.30
2023-01-10T02:02:31.001Z,32.67
2023-01-10T02:05:08.897Z,32.20
2023-01-10T02:07:40.851Z,32.93
2023-01-10T02:10:36.983Z,32.70
2023-01-10T02:13:07.997Z,31.50
2023-01-10T02:15:55.464Z,30.03
2023-01-10T02:18:24.339Z,32.33
2023-01-10T02:21:31.624Z,32.57
2023-01-10T02:25:19.812Z,32.30
2023-01-10T02:28:23.128Z,30.67
2023-01-10T02:31:11.918Z,32.87
2023-01-10T02:33:55.645Z,33.23
2023-01-10T02:36:47.038Z,31.50
2023-01-10T02:39:28.613Z,31.67
2023-01-10T02:42:13.909Z,32.23
2023-01-10T02:44:51.117Z,30.17
2023-01-10T02:47:18.840Z,31.77
2023-01-10T02:49:51.906Z,30.73
2023-01-10T02:52:28.269Z,30.53
2023-01-10T02:55:01.884Z,30.90
2023-01-10T02:57:50.049Z,33.07
2023-01-10T03:00:26.826Z,34.30
2023-01-10T03:03:33.421Z,34.30
2023-01-10T03:06:41.111Z,34.10
2023-01-10T03:09:19.927Z,34.07
2023-01-10T03:11:53.716Z,33.77
2023-01-10T03:14:26.290Z,33.07
2023-01-10T03:17:00.317Z,32.13
2023-01-10T03:19:38.010Z,33.17
2023-01-10T03:22:11.296Z,33.60
2023-01-10T03:24:50.986Z,34.33
2023-01-10T03:27:26.146Z,33.57
2023-01-10T03:30:06.551Z,33.20
2023-01-10T03:32:34.744Z,33.67
2023-01-10T03:35:04.514Z,33.07
2023-01-10T03:37:55.403Z,35.30
2023-01-10T03:41:29.529Z,32.87
2023-01-10T03:44:44.273Z,32.27
2023-01-10T03:47:32.607Z,32.47
2023-01-10T03:50:12.966Z,32.70
2023-01-10T03:52:42.845Z,32.83
2023-01-10T03:55:18.543Z,33.03
2023-01-10T03:57:46.350Z,40.27
2023-01-10T04:00:16.545Z,35.53
2023-01-10T04:02:44.540Z,35.63
2023-01-10T04:05:13.152Z,35.70
2023-01-10T04:07:40.964Z,34.57
2023-01-10T04:10:09.602Z,61.43
2023-01-10T04:12:37.309Z,108.70
2023-01-10T04:15:07.780Z,58.87
2023-01-10T04:17:35.219Z,38.70
2023-01-10T04:20:02.789Z,36.07
2023-01-10T04:22:30.273Z,35.97
2023-01-10T04:24:57.697Z,34.70
2023-01-10T04:27:25.232Z,33.80
2023-01-10T04:29:53.219Z,36.63
2023-01-10T04:32:21.745Z,34.80
2023-01-10T04:34:49.194Z,54.43
2023-01-10T04:37:16.734Z,51.80
2023-01-10T04:39:44.299Z,44.03
2023-01-10T04:42:11.815Z,48.30
2023-01-10T04:44:39.442Z,46.53
2023-01-10T04:47:07.182Z,47.20
2023-01-10T04:49:34.669Z,42.10
2023-01-10T04:52:02.486Z,41.60
2023-01-10T04:54:29.988Z,39.50
2023-01-10T04:56:57.602Z,40.10
2023-01-10T04:59:25.195Z,39.87
2023-01-10T05:01:52.682Z,40.13
2023-01-10T05:04:20.976Z,46.93
2023-01-10T05:06:49.496Z,46.13
2023-01-10T05:09:17.047Z,42.83
2023-01-10T05:11:44.484Z,65.67
2023-01-10T05:14:11.919Z,55.03
2023-01-10T05:16:39.412Z,45.67
2023-01-10T05:19:07.003Z,43.40
2023-01-10T05:21:34.476Z,39.80
2023-01-10T05:24:01.977Z,40.50
2023-01-10T05:26:29.367Z,38.80
2023-01-10T05:28:56.948Z,40.67
2023-01-10T05:31:24.496Z,41.40
2023-01-10T05:33:52.756Z,40.30
2023-01-10T05:36:20.545Z,41.03
2023-01-10T05:38:48.354Z,44.60
2023-01-10T05:41:15.824Z,42.43
2023-01-10T05:43:43.266Z,44.07
2023-01-10T05:46:11.480Z,46.37
2023-01-10T05:48:39.125Z,46.63
2023-01-10T05:51:06.926Z,49.67
2023-01-10T05:53:34.417Z,43.73
2023-01-10T05:56:03.615Z,44.00
2023-01-10T05:58:31.616Z,40.53
2023-01-10T06:00:59.633Z,39.93
2023-01-10T06:03:27.447Z,40.70
2023-01-10T06:05:58.406Z,41.43
2023-01-10T06:08:26.438Z,40.37
2023-01-10T06:10:53.996Z,42.40
2023-01-10T06:13:21.784Z,41.77
2023-01-10T06:15:50.018Z,43.73
2023-01-10T06:18:17.547Z,41.53
2023-01-10T06:20:45.324Z,42.80
2023-01-10T06:23:12.947Z,43.70
2023-01-10T06:25:41.783Z,45.10
2023-01-10T06:28:11.585Z,45.80
2023-01-10T06:30:42.124Z,45.10
2023-01-10T06:33:11.444Z,45.87
2023-01-10T06:35:39.855Z,46.03
2023-01-10T06:38:07.586Z,44.63
2023-01-10T06:40:35.102Z,42.30
2023-01-10T06:43:02.579Z,45.20
2023-01-10T06:45:30.455Z,41.50
2023-01-10T06:47:57.995Z,41.63
2023-01-10T06:50:26.110Z,40.83
2023-01-10T06:53:02.942Z,40.50
2023-01-10T06:55:31.052Z,45.67
2023-01-10T06:58:01.199Z,44.73
2023-01-10T07:00:30.221Z,44.03
2023-01-10T07:03:02.818Z,53.50
2023-01-10T07:05:30.769Z,43.63
2023-01-10T07:08:01.211Z,40.20
2023-01-10T07:10:29.117Z,44.43
2023-01-10T07:12:56.939Z,44.53
2023-01-10T07:15:24.551Z,43.33
2023-01-10T07:17:52.096Z,41.87
2023-01-10T07:20:20.950Z,40.37
2023-01-10T07:23:00.413Z,40.23
2023-01-10T07:25:30.628Z,37.30
2023-01-10T07:27:58.360Z,35.40
2023-01-10T07:30:26.171Z,38.03
2023-01-10T07:32:58.690Z,35.83
2023-01-10T07:35:26.829Z,34.90
2023-01-10T07:37:54.395Z,35.27
2023-01-10T07:40:21.884Z,36.73
2023-01-10T07:42:50.080Z,46.00
2023-01-10T07:45:17.635Z,39.63
2023-01-10T07:47:45.076Z,36.43
2023-01-10T07:50:12.555Z,38.23
2023-01-10T07:52:40.050Z,40.87
2023-01-10T07:55:08.022Z,37.67
2023-01-10T07:57:35.497Z,45.03
2023-01-10T08:00:03.708Z,43.87
2023-01-10T08:02:32.610Z,36.97
2023-01-10T08:05:01.534Z,35.83
2023-01-10T08:07:35.143Z,37.50
2023-01-10T08:10:03.251Z,37.27
2023-01-10T08:12:30.761Z,36.53
2023-01-10T08:14:58.287Z,35.13
2023-01-10T08:17:26.210Z,38.67
2023-01-10T08:19:53.681Z,36.50
2023-01-10T08:22:21.266Z,40.30
2023-01-10T08:24:48.812Z,36.03
2023-01-10T08:27:16.424Z,36.00
2023-01-10T08:29:43.865Z,39.20
2023-01-10T08:32:12.045Z,36.90
2023-01-10T08:34:39.656Z,39.83
2023-01-10T08:37:07.198Z,41.40
2023-01-10T08:39:35.415Z,40.87
2023-01-10T08:42:03.246Z,44.50
2023-01-10T08:44:30.795Z,38.50
2023-01-10T08:46:58.422Z,39.33
2023-01-10T08:49:25.860Z,36.83
2023-01-10T08:51:53.326Z,35.77
2023-01-10T08:54:20.812Z,40.27
2023-01-10T08:56:49.532Z,32.83
2023-01-10T08:59:17.345Z,33.03
2023-01-10T09:01:45.029Z,31.37
2023-01-10T09:04:12.815Z,29.27
2023-01-10T09:06:40.263Z,34.67
2023-01-10T09:09:08.084Z,35.60
2023-01-10T09:11:35.626Z,32.23
2023-01-10T09:14:03.105Z,35.27
2023-01-10T09:16:30.697Z,41.93
2023-01-10T09:18:58.342Z,51.60
2023-01-10T09:21:27.192Z,46.93
2023-01-10T09:23:54.920Z,42.87
2023-01-10T09:26:22.482Z,35.53
2023-01-10T09:28:50.038Z,69.33
2023-01-10T09:31:17.585Z,75.67
2023-01-10T09:33:47.756Z,52.57
2023-01-10T09:36:15.840Z,55.67
2023-01-10T09:38:44.319Z,52.17
2023-01-10T09:41:54.779Z,40.27
2023-01-10T09:44:44.189Z,40.83
2023-01-10T09:47:45.623Z,34.37
2023-01-10T09:50:41.575Z,31.13
2023-01-10T09:53:21.699Z,33.03
2023-01-10T09:55:59.924Z,31.73
2023-01-10T09:58:32.078Z,33.23
2023-01-10T10:01:10.972Z,32.17
2023-01-10T10:04:11.771Z,26.80
2023-01-10T10:06:39.746Z,25.30
2023-01-10T10:09:11.509Z,33.07
2023-01-10T10:12:16.568Z,26.20
2023-01-10T10:15:33.971Z,31.30
2023-01-10T10:18:07.201Z,29.50
2023-01-10T10:20:53.783Z,36.83
2023-01-10T10:24:26.853Z,34.77
2023-01-10T10:27:41.160Z,29.67
2023-01-10T10:30:36.057Z,33.33
2023-01-10T10:33:30.709Z,39.33
2023-01-10T10:36:05.331Z,47.67
2023-01-10T10:38:39.584Z,48.60
2023-01-10T10:41:29.033Z,56.20
2023-01-10T10:44:04.299Z,45.70
2023-01-10T10:46:33.127Z,42.60
2023-01-10T10:49:49.609Z,36.13
2023-01-10T10:52:27.883Z,37.70
2023-01-10T10:54:57.051Z,36.43
2023-01-10T10:57:59.827Z,40.40
2023-01-10T11:00:30.810Z,30.77
2023-01-10T11:03:13.242Z,39.17
2023-01-10T11:05:47.916Z,38.20
2023-01-10T11:08:20.733Z,36.53
2023-01-10T11:10:54.303Z,33.93
2023-01-10T11:13:49.369Z,30.73
2023-01-10T11:16:33.200Z,32.00
2023-01-10T11:19:20.639Z,32.40
2023-01-10T11:22:04.868Z,28.27
2023-01-10T11:25:03.589Z,33.33
2023-01-10T11:27:52.527Z,32.87
2023-01-10T11:30:34.531Z,35.97
2023-01-10T11:33:06.311Z,32.20
2023-01-10T11:35:37.810Z,33.03
2023-01-10T11:38:16.959Z,28.67
2023-01-10T11:41:13.741Z,32.10
2023-01-10T11:43:42.185Z,30.03
2023-01-10T11:46:21.588Z,29.00
2023-01-10T11:49:09.699Z,28.80
2023-01-10T11:51:47.656Z,25.77
2023-01-10T11:54:25.660Z,32.57
2023-01-10T11:57:06.880Z,28.37
2023-01-10T11:59:34.752Z,25.93
2023-01-10T12:02:24.987Z,31.23
2023-01-10T12:04:54.840Z,41.17
2023-01-10T12:07:22.625Z,40.70
2023-01-10T12:10:04.014Z,45.97
2023-01-10T12:12:35.085Z,43.80
2023-01-10T12:15:33.571Z,42.13
2023-01-10T12:18:04.273Z,37.27
2023-01-10T12:20:46.932Z,35.80
2023-01-10T12:23:22.402Z,36.03
2023-01-10T12:25:53.242Z,35.90
2023-01-10T12:28:30.073Z,38.47
2023-01-10T12:31:02.331Z,35.50
2023-01-10T12:33:37.190Z,30.17
2023-01-10T12:36:25.757Z,28.93
2023-01-10T12:39:10.594Z,31.43
2023-01-10T12:42:35.204Z,33.23
2023-01-10T12:45:23.964Z,31.80
2023-01-10T12:48:06.846Z,34.93
2023-01-10T12:50:45.491Z,47.77
2023-01-10T12:53:24.027Z,71.87
2023-01-10T12:55:56.893Z,66.03
2023-01-10T12:59:11.393Z,45.77
2023-01-10T13:01:45.278Z,37.83
2023-01-10T13:04:22.374Z,37.43
2023-01-10T13:07:12.762Z,34.90
2023-01-10T13:09:43.862Z,38.77
2023-01-10T13:12:41.088Z,35.30
2023-01-10T13:15:27.937Z,47.53
2023-01-10T13:18:17.333Z,36.63
2023-01-10T13:20:45.944Z,50.00
2023-01-10T13:23:23.285Z,66.67
2023-01-10T13:26:10.481Z,54.47
2023-01-10T13:28:54.610Z,50.77
2023-01-10T13:31:31.685Z,41.73
2023-01-10T13:34:14.385Z,31.30
2023-01-10T13:36:56.937Z,31.83
2023-01-10T13:39:34.869Z,25.97
2023-01-10T13:42:20.765Z,27.20
2023-01-10T13:45:03.506Z,29.30
2023-01-10T13:47:40.120Z,32.10
2023-01-10T13:50:25.685Z,94.57
2023-01-10T13:53:15.659Z,45.70
2023-01-10T13:55:53.792Z,146.27
2023-01-10T13:58:42.727Z,72.23
2023-01-10T14:01:46.662Z,31.90
2023-01-10T14:04:47.560Z,63.17
2023-01-10T14:07:32.133Z,40.50
2023-01-10T14:10:21.675Z,35.37
2023-01-10T14:12:56.611Z,37.03
2023-01-10T14:15:32.292Z,40.37
2023-01-10T14:18:39.280Z,57.23
2023-01-10T14:21:09.756Z,67.87
2023-01-10T14:23:43.662Z,74.03
2023-01-10T14:26:30.075Z,52.90
2023-01-10T14:28:59.670Z,38.43
2023-01-10T14:31:28.991Z,36.73
2023-01-10T14:34:00.597Z,33.07
2023-01-10T14:36:48.374Z,32.87
2023-01-10T14:39:36.302Z,38.10
2023-01-10T14:42:08.213Z,34.37
2023-01-10T14:44:51.299Z,26.27
2023-01-10T14:47:34.433Z,30.83
2023-01-10T14:50:22.901Z,33.50
2023-01-10T14:52:50.408Z,33.30
2023-01-10T14:55:22.647Z,37.30
2023-01-10T14:58:02.842Z,48.63
2023-01-10T15:00:34.530Z,35.53
2023-01-10T15:03:04.251Z,48.50
2023-01-10T15:05:38.456Z,50.03
2023-01-10T15:08:35.924Z,38.10
2023-01-10T15:11:08.158Z,36.43
2023-01-10T15:13:50.713Z,29.43
2023-01-10T15:16:23.114Z,59.87
2023-01-10T15:18:51.555Z,40.73
2023-01-10T15:21:24.263Z,57.10
2023-01-10T15:23:52.067Z,50.80
2023-01-10T15:26:40.661Z,61.23
2023-01-10T15:29:19.472Z,87.83
2023-01-10T15:31:47.577Z,84.87
2023-01-10T15:34:21.668Z,54.67
2023-01-10T15:36:55.994Z,52.33
2023-01-10T15:39:29.790Z,47.07
2023-01-10T15:42:03.720Z,43.37
2023-01-10T15:44:37.056Z,41.17
2023-01-10T15:47:05.883Z,43.03
2023-01-10T15:49:33.786Z,41.17
2023-01-10T15:52:03.981Z,59.70
2023-01-10T15:54:32.872Z,41.70
2023-01-10T15:57:14.978Z,42.27
2023-01-10T15:59:48.126Z,42.00
2023-01-10T16:02:34.287Z,49.47
2023-01-10T16:05:22.108Z,46.90
2023-01-10T16:07:49.951Z,44.27
2023-01-10T16:10:45.415Z,55.83
2023-01-10T16:13:31.612Z,36.10
2023-01-10T16:16:04.930Z,27.30
2023-01-10T16:18:32.500Z,27.30
2023-01-10T16:21:03.758Z,28.20
2023-01-10T16:23:36.456Z,25.93
2023-01-10T16:26:24.832Z,25.73
2023-01-10T16:28:52.275Z,26.33
2023-01-10T16:31:20.851Z,25.57
2023-01-10T16:33:53.299Z,33.50
2023-01-10T16:36:21.487Z,36.50
2023-01-10T16:38:50.203Z,50.50
2023-01-10T16:41:38.214Z,83.77
2023-01-10T16:44:05.751Z,50.70
2023-01-10T16:46:36.881Z,55.57
2023-01-10T16:49:08.011Z,57.53
2023-01-10T16:51:41.129Z,47.50
2023-01-10T16:54:26.567Z,43.23
2023-01-10T16:56:54.180Z,58.13
2023-01-10T16:59:23.894Z,51.93
2023-01-10T17:01:58.567Z,63.93
2023-01-10T17:04:35.949Z,66.37
2023-01-10T17:07:03.629Z,91.33
2023-01-10T17:09:31.951Z,76.27
2023-01-10T17:12:11.235Z,61.03
2023-01-10T17:14:39.965Z,150.67
2023-01-10T17:17:07.503Z,169.70
2023-01-10T17:19:37.251Z,65.97
2023-01-10T17:22:05.642Z,77.77
2023-01-10T17:24:33.214Z,64.33
2023-01-10T17:27:02.769Z,57.00
2023-01-10T17:29:34.064Z,50.00
2023-01-10T17:32:02.004Z,72.27
2023-01-10T17:34:37.192Z,72.57
2023-01-10T17:37:08.398Z,68.20
2023-01-10T17:39:37.928Z,70.67
2023-01-10T17:42:08.302Z,63.97
2023-01-10T17:44:37.031Z,61.70
2023-01-10T17:47:10.898Z,91.47
2023-01-10T17:49:38.559Z,98.00
2023-01-10T17:52:09.021Z,78.00
2023-01-10T17:54:36.684Z,83.00
2023-01-10T17:57:06.511Z,66.83
2023-01-10T17:59:36.890Z,69.13
2023-01-10T18:02:11.208Z,53.23
2023-01-10T18:04:40.391Z,64.33
2023-01-10T18:07:09.466Z,50.40
2023-01-10T18:09:40.632Z,60.97
2023-01-10T18:12:14.313Z,63.57
2023-01-10T18:14:43.452Z,66.80
2023-01-10T18:17:16.626Z,79.57
2023-01-10T18:19:53.211Z,81.40
2023-01-10T18:22:40.939Z,73.60
2023-01-10T18:25:09.830Z,28.87
2023-01-10T18:27:42.934Z,26.37
2023-01-10T18:30:16.186Z,29.30
2023-01-10T18:32:46.081Z,26.67
2023-01-10T18:35:14.321Z,30.87
2023-01-10T18:37:45.830Z,52.83
2023-01-10T18:40:14.847Z,50.30
2023-01-10T18:42:44.750Z,28.77
2023-01-10T18:45:12.668Z,24.60
2023-01-10T18:47:40.583Z,25.93
2023-01-10T18:50:14.310Z,25.93
2023-01-10T18:52:43.525Z,34.20
2023-01-10T18:55:12.629Z,30.07
2023-01-10T18:57:55.895Z,30.80
2023-01-10T19:00:26.267Z,31.43
2023-01-10T19:02:56.350Z,27.87
2023-01-10T19:05:30.890Z,25.70
2023-01-10T19:08:00.247Z,24.70
2023-01-10T19:10:32.638Z,25.83
2023-01-10T19:13:12.867Z,26.17
2023-01-10T19:15:42.833Z,23.97
2023-01-10T19:18:15.493Z,24.00
2023-01-10T19:20:45.647Z,38.43
2023-01-10T19:23:13.691Z,34.53
2023-01-10T19:25:46.723Z,51.93
2023-01-10T19:28:18.446Z,56.80
2023-01-10T19:31:03.475Z,58.43
2023-01-10T19:33:40.410Z,62.37
2023-01-10T19:36:12.496Z,54.17
2023-01-10T19:38:41.072Z,42.73
2023-01-10T19:41:11.533Z,46.87
2023-01-10T19:43:43.658Z,38.33
2023-01-10T19:46:18.721Z,38.03
2023-01-10T19:48:48.243Z,39.80
2023-01-10T19:51:22.860Z,35.60
2023-01-10T19:53:52.182Z,32.97
2023-01-10T19:56:25.567Z,32.83
2023-01-10T19:59:01.712Z,31.60
2023-01-10T20:01:32.911Z,32.90
2023-01-10T20:04:07.393Z,23.67
2023-01-10T20:06:39.873Z,36.13
2023-01-10T20:09:09.409Z,33.77
2023-01-10T20:11:43.769Z,14.57
2023-01-10T20:14:26.092Z,12.63
2023-01-10T20:16:54.364Z,34.63
2023-01-10T20:19:23.175Z,32.97
2023-01-10T20:21:51.112Z,30.93
2023-01-10T20:24:21.225Z,25.60
2023-01-10T20:26:50.950Z,10.13
2023-01-10T20:29:20.328Z,5.23
2023-01-10T20:31:53.823Z,5.33
2023-01-10T20:34:23.394Z,5.57
2023-01-10T20:36:53.125Z,5.60
2023-01-10T20:39:27.911Z,7.70
2023-01-10T20:41:56.160Z,9.00
2023-01-10T20:44:30.841Z,6.53
2023-01-10T20:47:00.595Z,6.43
2023-01-10T20:49:28.695Z,6.47
2023-01-10T20:51:56.828Z,4.73
2023-01-10T20:54:25.677Z,4.70
2023-01-10T20:56:53.250Z,4.27
2023-01-10T20:59:25.944Z,3.40
2023-01-10T21:01:55.048Z,2.47
2023-01-10T21:04:22.591Z,3.03
2023-01-10T21:06:50.471Z,2.40
2023-01-10T21:09:20.543Z,2.90
2023-01-10T21:12:04.137Z,1.93
2023-01-10T21:14:35.623Z,1.97
2023-01-10T21:17:03.079Z,3.57
2023-01-10T21:19:30.671Z,5.10
2023-01-10T21:21:58.668Z,6.90
2023-01-10T21:24:26.309Z,4.67
2023-01-10T21:26:54.855Z,3.00
2023-01-10T21:29:22.713Z,3.00
2023-01-10T21:31:54.928Z,2.83
2023-01-10T21:34:22.486Z,2.67
2023-01-10T21:36:50.504Z,3.00
2023-01-10T21:39:18.373Z,3.03
2023-01-10T21:42:04.703Z,2.93
2023-01-10T21:44:32.192Z,3.23
2023-01-10T21:46:59.676Z,6.07
2023-01-10T21:49:27.288Z,6.63
2023-01-10T21:51:54.907Z,5.60
2023-01-10T21:54:22.555Z,4.27
2023-01-10T21:56:50.218Z,4.60
2023-01-10T21:59:17.955Z,4.80
2023-01-10T22:01:46.344Z,2.70
2023-01-10T22:04:16.353Z,2.13
2023-01-10T22:06:44.820Z,2.17
2023-01-10T22:09:12.324Z,2.60
2023-01-10T22:11:40.266Z,2.53
2023-01-10T22:14:07.806Z,2.47
2023-01-10T22:16:35.400Z,2.97
2023-01-10T22:19:02.886Z,3.13
2023-01-10T22:21:30.411Z,3.20
2023-01-10T22:23:57.877Z,3.03
2023-01-10T22:26:27.490Z,3.10
2023-01-10T22:28:55.439Z,2.77
2023-01-10T22:31:23.048Z,3.20
2023-01-10T22:33:50.609Z,2.20
2023-01-10T22:36:19.699Z,1.37
2023-01-10T22:38:50.008Z,1.50
2023-01-10T22:41:26.988Z,1.40
2023-01-10T22:43:55.837Z,1.10
2023-01-10T22:46:24.889Z,1.90
2023-01-10T22:48:53.028Z,1.90
2023-01-10T22:51:22.699Z,1.90
2023-01-10T22:53:55.997Z,2.00
2023-01-10T22:56:26.712Z,1.03
2023-01-10T22:58:54.291Z,1.30
2023-01-10T23:01:24.588Z,1.00
2023-01-10T23:03:52.228Z,1.10
2023-01-10T23:06:20.444Z,1.00
2023-01-10T23:08:48.700Z,1.40
2023-01-10T23:11:19.638Z,1.10
2023-01-10T23:13:48.107Z,1.10
2023-01-10T23:16:29.745Z,1.00
2023-01-10T23:18:58.821Z,0.83
2023-01-10T23:21:29.278Z,1.10
2023-01-10T23:23:57.231Z,1.10
2023-01-10T23:26:25.328Z,1.30
2023-01-10T23:28:52.897Z,1.10
2023-01-10T23:31:29.316Z,1.20
2023-01-10T23:33:57.407Z,1.40
2023-01-10T23:36:25.440Z,1.60
2023-01-10T23:38:53.106Z,1.10
2023-01-10T23:41:21.281Z,1.60
2023-01-10T23:43:50.489Z,2.63
2023-01-10T23:46:18.951Z,1.90
2023-01-10T23:48:48.345Z,1.53
2023-01-10T23:51:16.001Z,1.83
2023-01-10T23:53:43.671Z,1.70
2023-01-10T23:56:14.574Z,1.73
2023-01-10T23:58:42.276Z,1.90
